sensor_id;sensor_type;location;lat;lon;timestamp;P1;durP1;ratioP1;P2;durP2;ratioP2
58071;SDS011;60383;46.626;18.866;2022-07-03T00:00:22;3.53;;;3.15;;
58071;SDS011;60383;46.626;18.866;2022-07-03T00:02:48;4.45;;;3.88;;
58071;SDS011;60383;46.626;18.866;2022-07-03T00:05:14;6.47;;;4.10;;
58071;SDS011;60383;46.626;18.866;2022-07-03T00:07:40;6.00;;;3.85;;
58071;SDS011;60383;46.626;18.866;2022-07-03T00:10:05;6.07;;;3.90;;
58071;SDS011;60383;46.626;18.866;2022-07-03T00:12:31;5.05;;;4.03;;
58071;SDS011;60383;46.626;18.866;2022-07-03T00:14:57;5.15;;;4.10;;
58071;SDS011;60383;46.626;18.866;2022-07-03T00:17:22;4.55;;;4.15;;
58071;SDS011;60383;46.626;18.866;2022-07-03T00:19:48;6.03;;;3.97;;
58071;SDS011;60383;46.626;18.866;2022-07-03T00:22:13;4.85;;;4.15;;
58071;SDS011;60383;46.626;18.866;2022-07-03T00:24:52;6.13;;;4.32;;
58071;SDS011;60383;46.626;18.866;2022-07-03T00:27:23;5.53;;;4.40;;
58071;SDS011;60383;46.626;18.866;2022-07-03T00:29:50;4.72;;;4.25;;
58071;SDS011;60383;46.626;18.866;2022-07-03T00:32:23;4.80;;;4.10;;
58071;SDS011;60383;46.626;18.866;2022-07-03T00:34:50;5.25;;;4.53;;
58071;SDS011;60383;46.626;18.866;2022-07-03T00:37:17;7.22;;;4.55;;
58071;SDS011;60383;46.626;18.866;2022-07-03T00:39:44;5.72;;;4.60;;
58071;SDS011;60383;46.626;18.866;2022-07-03T00:42:11;5.90;;;4.50;;
58071;SDS011;60383;46.626;18.866;2022-07-03T00:44:42;5.95;;;4.60;;
58071;SDS011;60383;46.626;18.866;2022-07-03T00:47:19;7.85;;;5.18;;
58071;SDS011;60383;46.626;18.866;2022-07-03T00:49:49;5.32;;;4.82;;
58071;SDS011;60383;46.626;18.866;2022-07-03T00:52:20;5.95;;;5.20;;
58071;SDS011;60383;46.626;18.866;2022-07-03T00:54:57;7.07;;;5.00;;
58071;SDS011;60383;46.626;18.866;2022-07-03T00:57:25;5.28;;;4.70;;
58071;SDS011;60383;46.626;18.866;2022-07-03T00:59:52;5.45;;;5.00;;
58071;SDS011;60383;46.626;18.866;2022-07-03T01:13:25;8.68;;;5.20;;
58071;SDS011;60383;46.626;18.866;2022-07-03T01:16:05;6.18;;;5.57;;
58071;SDS011;60383;46.626;18.866;2022-07-03T01:18:49;6.30;;;5.65;;
58071;SDS011;60383;46.626;18.866;2022-07-03T01:21:45;6.60;;;6.00;;
58071;SDS011;60383;46.626;18.866;2022-07-03T01:27:02;7.40;;;5.90;;
58071;SDS011;60383;46.626;18.866;2022-07-03T01:29:35;6.70;;;6.05;;
58071;SDS011;60383;46.626;18.866;2022-07-03T01:32:10;6.95;;;6.35;;
58071;SDS011;60383;46.626;18.866;2022-07-03T01:34:37;7.68;;;6.25;;
58071;SDS011;60383;46.626;18.866;2022-07-03T01:37:08;7.80;;;6.28;;
58071;SDS011;60383;46.626;18.866;2022-07-03T01:39:35;7.95;;;6.82;;
58071;SDS011;60383;46.626;18.866;2022-07-03T01:42:04;6.93;;;6.13;;
58071;SDS011;60383;46.626;18.866;2022-07-03T01:44:33;6.73;;;5.97;;
58071;SDS011;60383;46.626;18.866;2022-07-03T01:47:01;6.82;;;6.20;;
58071;SDS011;60383;46.626;18.866;2022-07-03T01:49:27;7.00;;;6.28;;
58071;SDS011;60383;46.626;18.866;2022-07-03T01:51:56;7.30;;;6.60;;
58071;SDS011;60383;46.626;18.866;2022-07-03T01:54:26;7.03;;;6.32;;
58071;SDS011;60383;46.626;18.866;2022-07-03T01:56:55;6.97;;;6.20;;
58071;SDS011;60383;46.626;18.866;2022-07-03T01:59:20;7.07;;;6.32;;
58071;SDS011;60383;46.626;18.866;2022-07-03T02:01:57;10.25;;;6.78;;
58071;SDS011;60383;46.626;18.866;2022-07-03T02:04:28;7.78;;;6.40;;
58071;SDS011;60383;46.626;18.866;2022-07-03T02:07:02;7.15;;;6.45;;
58071;SDS011;60383;46.626;18.866;2022-07-03T02:09:50;7.72;;;6.90;;
58071;SDS011;60383;46.626;18.866;2022-07-03T02:12:27;7.72;;;7.03;;
58071;SDS011;60383;46.626;18.866;2022-07-03T02:15:20;7.15;;;6.45;;
58071;SDS011;60383;46.626;18.866;2022-07-03T02:17:53;6.95;;;6.32;;
58071;SDS011;60383;46.626;18.866;2022-07-03T02:20:21;8.32;;;7.53;;
58071;SDS011;60383;46.626;18.866;2022-07-03T02:22:54;8.70;;;7.30;;
58071;SDS011;60383;46.626;18.866;2022-07-03T02:30:48;8.55;;;7.75;;
58071;SDS011;60383;46.626;18.866;2022-07-03T02:33:21;8.20;;;7.10;;
58071;SDS011;60383;46.626;18.866;2022-07-03T02:35:53;7.65;;;6.85;;
58071;SDS011;60383;46.626;18.866;2022-07-03T02:38:21;9.63;;;7.95;;
58071;SDS011;60383;46.626;18.866;2022-07-03T02:41:23;8.98;;;8.07;;
58071;SDS011;60383;46.626;18.866;2022-07-03T02:46:38;8.13;;;7.32;;
58071;SDS011;60383;46.626;18.866;2022-07-03T02:49:16;8.57;;;7.78;;
58071;SDS011;60383;46.626;18.866;2022-07-03T02:51:50;8.27;;;7.43;;
58071;SDS011;60383;46.626;18.866;2022-07-03T02:54:22;8.25;;;7.30;;
58071;SDS011;60383;46.626;18.866;2022-07-03T03:04:58;10.15;;;7.63;;
58071;SDS011;60383;46.626;18.866;2022-07-03T03:07:42;8.75;;;7.85;;
58071;SDS011;60383;46.626;18.866;2022-07-03T03:10:18;9.50;;;8.07;;
58071;SDS011;60383;46.626;18.866;2022-07-03T03:12:46;8.90;;;7.72;;
58071;SDS011;60383;46.626;18.866;2022-07-03T03:15:17;10.38;;;7.97;;
58071;SDS011;60383;46.626;18.866;2022-07-03T03:17:47;11.18;;;8.07;;
58071;SDS011;60383;46.626;18.866;2022-07-03T03:20:16;8.50;;;7.70;;
58071;SDS011;60383;46.626;18.866;2022-07-03T03:25:08;8.45;;;7.60;;
58071;SDS011;60383;46.626;18.866;2022-07-03T03:27:34;9.70;;;7.90;;
58071;SDS011;60383;46.626;18.866;2022-07-03T03:29:59;8.93;;;8.02;;
58071;SDS011;60383;46.626;18.866;2022-07-03T03:32:25;8.75;;;7.53;;
58071;SDS011;60383;46.626;18.866;2022-07-03T03:34:51;10.32;;;8.48;;
58071;SDS011;60383;46.626;18.866;2022-07-03T03:37:17;8.68;;;7.43;;
58071;SDS011;60383;46.626;18.866;2022-07-03T03:39:43;8.48;;;7.57;;
58071;SDS011;60383;46.626;18.866;2022-07-03T03:42:08;9.55;;;8.05;;
58071;SDS011;60383;46.626;18.866;2022-07-03T03:44:34;9.73;;;8.40;;
58071;SDS011;60383;46.626;18.866;2022-07-03T03:46:59;9.88;;;7.93;;
58071;SDS011;60383;46.626;18.866;2022-07-03T03:49:25;9.50;;;8.00;;
58071;SDS011;60383;46.626;18.866;2022-07-03T03:51:50;8.75;;;7.85;;
58071;SDS011;60383;46.626;18.866;2022-07-03T03:54:17;10.82;;;7.97;;
58071;SDS011;60383;46.626;18.866;2022-07-03T03:56:43;11.07;;;7.55;;
58071;SDS011;60383;46.626;18.866;2022-07-03T03:59:08;8.52;;;7.63;;
58071;SDS011;60383;46.626;18.866;2022-07-03T04:01:33;8.50;;;7.60;;
58071;SDS011;60383;46.626;18.866;2022-07-03T04:03:59;9.68;;;7.70;;
58071;SDS011;60383;46.626;18.866;2022-07-03T04:06:25;11.88;;;7.78;;
58071;SDS011;60383;46.626;18.866;2022-07-03T04:08:50;8.75;;;7.82;;
58071;SDS011;60383;46.626;18.866;2022-07-03T04:11:16;8.68;;;7.47;;
58071;SDS011;60383;46.626;18.866;2022-07-03T04:13:42;8.90;;;7.43;;
58071;SDS011;60383;46.626;18.866;2022-07-03T04:16:08;8.70;;;7.50;;
58071;SDS011;60383;46.626;18.866;2022-07-03T04:18:33;8.07;;;7.28;;
58071;SDS011;60383;46.626;18.866;2022-07-03T04:20:59;8.73;;;7.20;;
58071;SDS011;60383;46.626;18.866;2022-07-03T04:23:25;8.15;;;7.10;;
58071;SDS011;60383;46.626;18.866;2022-07-03T04:25:50;9.23;;;7.30;;
58071;SDS011;60383;46.626;18.866;2022-07-03T04:28:16;9.13;;;7.72;;
58071;SDS011;60383;46.626;18.866;2022-07-03T04:30:41;8.35;;;7.28;;
58071;SDS011;60383;46.626;18.866;2022-07-03T04:33:07;8.27;;;7.47;;
58071;SDS011;60383;46.626;18.866;2022-07-03T04:35:32;8.07;;;7.18;;
58071;SDS011;60383;46.626;18.866;2022-07-03T04:37:58;8.35;;;7.53;;
58071;SDS011;60383;46.626;18.866;2022-07-03T04:40:23;8.00;;;7.20;;
58071;SDS011;60383;46.626;18.866;2022-07-03T04:42:49;7.53;;;6.93;;
58071;SDS011;60383;46.626;18.866;2022-07-03T04:45:14;10.50;;;7.65;;
58071;SDS011;60383;46.626;18.866;2022-07-03T04:47:40;8.00;;;7.30;;
58071;SDS011;60383;46.626;18.866;2022-07-03T04:50:05;9.70;;;7.50;;
58071;SDS011;60383;46.626;18.866;2022-07-03T04:52:31;8.93;;;7.50;;
58071;SDS011;60383;46.626;18.866;2022-07-03T04:54:57;8.07;;;7.32;;
58071;SDS011;60383;46.626;18.866;2022-07-03T04:57:22;8.88;;;7.05;;
58071;SDS011;60383;46.626;18.866;2022-07-03T04:59:47;8.10;;;7.28;;
58071;SDS011;60383;46.626;18.866;2022-07-03T05:02:13;8.18;;;6.93;;
58071;SDS011;60383;46.626;18.866;2022-07-03T05:04:38;8.32;;;7.53;;
58071;SDS011;60383;46.626;18.866;2022-07-03T05:07:04;8.63;;;7.68;;
58071;SDS011;60383;46.626;18.866;2022-07-03T05:09:29;9.20;;;7.40;;
58071;SDS011;60383;46.626;18.866;2022-07-03T05:11:55;9.77;;;7.80;;
58071;SDS011;60383;46.626;18.866;2022-07-03T05:14:20;8.13;;;7.32;;
58071;SDS011;60383;46.626;18.866;2022-07-03T05:16:46;8.18;;;7.38;;
58071;SDS011;60383;46.626;18.866;2022-07-03T05:19:12;8.93;;;8.05;;
58071;SDS011;60383;46.626;18.866;2022-07-03T05:21:37;7.75;;;6.95;;
58071;SDS011;60383;46.626;18.866;2022-07-03T05:24:02;9.68;;;7.38;;
58071;SDS011;60383;46.626;18.866;2022-07-03T05:26:28;8.93;;;7.85;;
58071;SDS011;60383;46.626;18.866;2022-07-03T05:28:54;9.13;;;8.13;;
58071;SDS011;60383;46.626;18.866;2022-07-03T05:31:19;9.95;;;7.20;;
58071;SDS011;60383;46.626;18.866;2022-07-03T05:33:44;9.23;;;8.32;;
58071;SDS011;60383;46.626;18.866;2022-07-03T05:36:10;7.80;;;7.00;;
58071;SDS011;60383;46.626;18.866;2022-07-03T05:38:36;8.73;;;7.82;;
58071;SDS011;60383;46.626;18.866;2022-07-03T05:41:20;8.68;;;7.88;;
58071;SDS011;60383;46.626;18.866;2022-07-03T05:43:45;9.95;;;7.70;;
58071;SDS011;60383;46.626;18.866;2022-07-03T05:46:11;9.10;;;7.45;;
58071;SDS011;60383;46.626;18.866;2022-07-03T05:48:37;9.52;;;8.60;;
58071;SDS011;60383;46.626;18.866;2022-07-03T05:51:02;9.27;;;7.80;;
58071;SDS011;60383;46.626;18.866;2022-07-03T05:53:28;9.50;;;7.95;;
58071;SDS011;60383;46.626;18.866;2022-07-03T05:55:54;9.23;;;8.32;;
58071;SDS011;60383;46.626;18.866;2022-07-03T05:58:19;8.75;;;7.85;;
58071;SDS011;60383;46.626;18.866;2022-07-03T06:00:45;8.88;;;8.07;;
58071;SDS011;60383;46.626;18.866;2022-07-03T06:03:10;9.57;;;8.57;;
58071;SDS011;60383;46.626;18.866;2022-07-03T06:05:36;8.40;;;7.60;;
58071;SDS011;60383;46.626;18.866;2022-07-03T06:08:01;8.50;;;7.72;;
58071;SDS011;60383;46.626;18.866;2022-07-03T06:10:28;9.32;;;8.35;;
58071;SDS011;60383;46.626;18.866;2022-07-03T06:12:54;9.43;;;8.38;;
58071;SDS011;60383;46.626;18.866;2022-07-03T06:15:20;9.80;;;8.73;;
58071;SDS011;60383;46.626;18.866;2022-07-03T06:17:46;9.02;;;8.15;;
58071;SDS011;60383;46.626;18.866;2022-07-03T06:20:11;9.50;;;8.30;;
58071;SDS011;60383;46.626;18.866;2022-07-03T06:22:38;9.50;;;8.27;;
58071;SDS011;60383;46.626;18.866;2022-07-03T06:25:04;10.52;;;8.40;;
58071;SDS011;60383;46.626;18.866;2022-07-03T06:27:30;9.52;;;8.15;;
58071;SDS011;60383;46.626;18.866;2022-07-03T06:29:55;9.02;;;8.13;;
58071;SDS011;60383;46.626;18.866;2022-07-03T06:32:21;9.52;;;8.52;;
58071;SDS011;60383;46.626;18.866;2022-07-03T06:34:46;8.45;;;7.65;;
58071;SDS011;60383;46.626;18.866;2022-07-03T06:37:13;8.40;;;7.60;;
58071;SDS011;60383;46.626;18.866;2022-07-03T06:39:38;8.65;;;7.90;;
58071;SDS011;60383;46.626;18.866;2022-07-03T06:42:04;10.05;;;7.90;;
58071;SDS011;60383;46.626;18.866;2022-07-03T06:44:30;8.60;;;7.78;;
58071;SDS011;60383;46.626;18.866;2022-07-03T06:46:56;11.18;;;8.10;;
58071;SDS011;60383;46.626;18.866;2022-07-03T06:49:22;9.40;;;8.50;;
58071;SDS011;60383;46.626;18.866;2022-07-03T06:51:48;8.65;;;7.85;;
58071;SDS011;60383;46.626;18.866;2022-07-03T06:54:13;10.05;;;8.55;;
58071;SDS011;60383;46.626;18.866;2022-07-03T06:56:39;8.90;;;7.97;;
58071;SDS011;60383;46.626;18.866;2022-07-03T06:59:04;10.45;;;7.93;;
58071;SDS011;60383;46.626;18.866;2022-07-03T07:01:30;8.63;;;7.82;;
58071;SDS011;60383;46.626;18.866;2022-07-03T07:03:55;8.60;;;7.70;;
58071;SDS011;60383;46.626;18.866;2022-07-03T07:06:21;9.02;;;8.23;;
58071;SDS011;60383;46.626;18.866;2022-07-03T07:08:47;9.32;;;8.10;;
58071;SDS011;60383;46.626;18.866;2022-07-03T07:11:13;8.93;;;8.02;;
58071;SDS011;60383;46.626;18.866;2022-07-03T07:13:39;8.80;;;7.93;;
58071;SDS011;60383;46.626;18.866;2022-07-03T07:16:04;9.13;;;8.13;;
58071;SDS011;60383;46.626;18.866;2022-07-03T07:18:30;8.88;;;7.97;;
58071;SDS011;60383;46.626;18.866;2022-07-03T07:20:56;8.50;;;7.70;;
58071;SDS011;60383;46.626;18.866;2022-07-03T07:23:21;9.20;;;8.30;;
58071;SDS011;60383;46.626;18.866;2022-07-03T07:25:46;11.45;;;8.23;;
58071;SDS011;60383;46.626;18.866;2022-07-03T07:28:12;8.88;;;7.97;;
58071;SDS011;60383;46.626;18.866;2022-07-03T07:30:37;10.18;;;8.10;;
58071;SDS011;60383;46.626;18.866;2022-07-03T07:33:06;9.50;;;8.07;;
58071;SDS011;60383;46.626;18.866;2022-07-03T07:35:32;9.35;;;7.90;;
58071;SDS011;60383;46.626;18.866;2022-07-03T07:37:57;9.20;;;8.30;;
58071;SDS011;60383;46.626;18.866;2022-07-03T07:40:23;8.77;;;7.88;;
58071;SDS011;60383;46.626;18.866;2022-07-03T07:42:48;10.05;;;8.75;;
58071;SDS011;60383;46.626;18.866;2022-07-03T07:45:14;8.90;;;8.05;;
58071;SDS011;60383;46.626;18.866;2022-07-03T07:47:39;8.73;;;7.93;;
58071;SDS011;60383;46.626;18.866;2022-07-03T07:50:05;8.68;;;7.75;;
58071;SDS011;60383;46.626;18.866;2022-07-03T07:52:31;9.68;;;8.60;;
58071;SDS011;60383;46.626;18.866;2022-07-03T07:54:56;9.30;;;8.40;;
58071;SDS011;60383;46.626;18.866;2022-07-03T07:57:22;8.98;;;7.70;;
58071;SDS011;60383;46.626;18.866;2022-07-03T07:59:47;9.15;;;8.25;;
58071;SDS011;60383;46.626;18.866;2022-07-03T08:02:13;10.60;;;9.60;;
58071;SDS011;60383;46.626;18.866;2022-07-03T08:04:56;9.48;;;8.13;;
58071;SDS011;60383;46.626;18.866;2022-07-03T08:10:37;9.95;;;8.20;;
58071;SDS011;60383;46.626;18.866;2022-07-03T08:13:04;9.00;;;8.10;;
58071;SDS011;60383;46.626;18.866;2022-07-03T08:15:30;8.50;;;7.80;;
58071;SDS011;60383;46.626;18.866;2022-07-03T08:17:55;8.95;;;8.10;;
58071;SDS011;60383;46.626;18.866;2022-07-03T08:20:21;8.82;;;8.02;;
58071;SDS011;60383;46.626;18.866;2022-07-03T08:22:46;8.55;;;7.70;;
58071;SDS011;60383;46.626;18.866;2022-07-03T08:25:11;8.02;;;7.32;;
58071;SDS011;60383;46.626;18.866;2022-07-03T08:27:37;8.60;;;7.80;;
58071;SDS011;60383;46.626;18.866;2022-07-03T08:30:03;9.50;;;8.10;;
58071;SDS011;60383;46.626;18.866;2022-07-03T08:32:29;10.80;;;7.93;;
58071;SDS011;60383;46.626;18.866;2022-07-03T08:34:54;8.90;;;7.63;;
58071;SDS011;60383;46.626;18.866;2022-07-03T08:37:19;8.80;;;7.68;;
58071;SDS011;60383;46.626;18.866;2022-07-03T08:39:45;8.73;;;7.82;;
58071;SDS011;60383;46.626;18.866;2022-07-03T08:42:11;8.10;;;7.38;;
58071;SDS011;60383;46.626;18.866;2022-07-03T08:44:37;8.35;;;7.57;;
58071;SDS011;60383;46.626;18.866;2022-07-03T08:47:05;8.25;;;6.90;;
58071;SDS011;60383;46.626;18.866;2022-07-03T08:49:33;7.07;;;6.47;;
58071;SDS011;60383;46.626;18.866;2022-07-03T08:51:59;6.55;;;5.95;;
58071;SDS011;60383;46.626;18.866;2022-07-03T08:54:25;8.40;;;6.18;;
58071;SDS011;60383;46.626;18.866;2022-07-03T08:56:51;10.05;;;6.40;;
58071;SDS011;60383;46.626;18.866;2022-07-03T08:59:17;7.70;;;6.40;;
58071;SDS011;60383;46.626;18.866;2022-07-03T09:01:45;7.88;;;6.00;;
58071;SDS011;60383;46.626;18.866;2022-07-03T09:04:12;7.43;;;5.82;;
58071;SDS011;60383;46.626;18.866;2022-07-03T09:06:41;7.00;;;6.28;;
58071;SDS011;60383;46.626;18.866;2022-07-03T09:09:08;6.40;;;5.80;;
58071;SDS011;60383;46.626;18.866;2022-07-03T09:11:35;6.38;;;5.72;;
58071;SDS011;60383;46.626;18.866;2022-07-03T09:14:04;9.10;;;5.88;;
58071;SDS011;60383;46.626;18.866;2022-07-03T09:16:33;6.40;;;5.55;;
58071;SDS011;60383;46.626;18.866;2022-07-03T09:19:00;6.05;;;5.55;;
58071;SDS011;60383;46.626;18.866;2022-07-03T09:21:34;7.22;;;5.32;;
58071;SDS011;60383;46.626;18.866;2022-07-03T09:24:03;5.50;;;5.00;;
58071;SDS011;60383;46.626;18.866;2022-07-03T09:26:30;5.72;;;5.07;;
58071;SDS011;60383;46.626;18.866;2022-07-03T09:28:56;11.88;;;5.13;;
58071;SDS011;60383;46.626;18.866;2022-07-03T09:31:22;4.82;;;4.40;;
58071;SDS011;60383;46.626;18.866;2022-07-03T09:33:57;4.78;;;4.15;;
58071;SDS011;60383;46.626;18.866;2022-07-03T09:41:52;5.05;;;4.43;;
58071;SDS011;60383;46.626;18.866;2022-07-03T09:44:29;7.78;;;4.60;;
58071;SDS011;60383;46.626;18.866;2022-07-03T09:50:10;7.13;;;6.00;;
58071;SDS011;60383;46.626;18.866;2022-07-03T09:52:35;6.97;;;6.32;;
58071;SDS011;60383;46.626;18.866;2022-07-03T09:57:33;6.90;;;6.30;;
58071;SDS011;60383;46.626;18.866;2022-07-03T10:05:32;7.10;;;5.88;;
58071;SDS011;60383;46.626;18.866;2022-07-03T10:10:27;8.17;;;6.07;;
58071;SDS011;60383;46.626;18.866;2022-07-03T10:12:55;8.15;;;6.60;;
58071;SDS011;60383;46.626;18.866;2022-07-03T10:15:21;6.65;;;5.80;;
58071;SDS011;60383;46.626;18.866;2022-07-03T10:17:50;7.10;;;6.40;;
58071;SDS011;60383;46.626;18.866;2022-07-03T10:20:19;6.82;;;5.70;;
58071;SDS011;60383;46.626;18.866;2022-07-03T10:22:49;5.43;;;4.93;;
58071;SDS011;60383;46.626;18.866;2022-07-03T10:25:15;5.05;;;4.65;;
58071;SDS011;60383;46.626;18.866;2022-07-03T10:27:42;8.23;;;5.03;;
58071;SDS011;60383;46.626;18.866;2022-07-03T10:30:08;6.15;;;5.10;;
58071;SDS011;60383;46.626;18.866;2022-07-03T10:32:34;7.22;;;5.03;;
58071;SDS011;60383;46.626;18.866;2022-07-03T10:35:03;5.60;;;4.88;;
58071;SDS011;60383;46.626;18.866;2022-07-03T10:37:30;6.65;;;4.80;;
58071;SDS011;60383;46.626;18.866;2022-07-03T10:43:25;6.20;;;4.80;;
58071;SDS011;60383;46.626;18.866;2022-07-03T10:46:11;5.80;;;4.65;;
58071;SDS011;60383;46.626;18.866;2022-07-03T10:51:16;8.57;;;4.80;;
58071;SDS011;60383;46.626;18.866;2022-07-03T10:53:41;7.05;;;4.18;;
58071;SDS011;60383;46.626;18.866;2022-07-03T10:56:07;5.10;;;4.10;;
58071;SDS011;60383;46.626;18.866;2022-07-03T10:58:32;6.40;;;4.38;;
58071;SDS011;60383;46.626;18.866;2022-07-03T11:01:28;5.30;;;4.20;;
58071;SDS011;60383;46.626;18.866;2022-07-03T11:03:58;6.35;;;3.70;;
58071;SDS011;60383;46.626;18.866;2022-07-03T11:09:08;7.95;;;3.97;;
58071;SDS011;60383;46.626;18.866;2022-07-03T11:11:41;4.93;;;3.78;;
58071;SDS011;60383;46.626;18.866;2022-07-03T11:19:42;6.63;;;3.80;;
58071;SDS011;60383;46.626;18.866;2022-07-03T11:22:09;4.40;;;4.03;;
58071;SDS011;60383;46.626;18.866;2022-07-03T11:24:44;5.40;;;3.67;;
58071;SDS011;60383;46.626;18.866;2022-07-03T11:27:17;5.47;;;3.85;;
58071;SDS011;60383;46.626;18.866;2022-07-03T11:29:52;5.68;;;3.60;;
58071;SDS011;60383;46.626;18.866;2022-07-03T11:32:30;6.90;;;3.53;;
58071;SDS011;60383;46.626;18.866;2022-07-03T11:38:34;2.85;;;2.60;;
58071;SDS011;60383;46.626;18.866;2022-07-03T11:41:02;7.05;;;2.92;;
58071;SDS011;60383;46.626;18.866;2022-07-03T11:43:32;5.47;;;3.28;;
58071;SDS011;60383;46.626;18.866;2022-07-03T11:45:59;4.28;;;3.10;;
58071;SDS011;60383;46.626;18.866;2022-07-03T11:48:25;5.45;;;3.00;;
58071;SDS011;60383;46.626;18.866;2022-07-03T11:50:51;6.40;;;3.30;;
58071;SDS011;60383;46.626;18.866;2022-07-03T11:53:24;6.03;;;3.33;;
58071;SDS011;60383;46.626;18.866;2022-07-03T11:56:01;4.05;;;3.30;;
58071;SDS011;60383;46.626;18.866;2022-07-03T11:58:42;7.07;;;3.22;;
58071;SDS011;60383;46.626;18.866;2022-07-03T12:01:09;8.43;;;3.72;;
58071;SDS011;60383;46.626;18.866;2022-07-03T12:03:36;5.95;;;3.85;;
58071;SDS011;60383;46.626;18.866;2022-07-03T12:06:02;4.88;;;3.42;;
58071;SDS011;60383;46.626;18.866;2022-07-03T12:08:29;6.30;;;3.47;;
58071;SDS011;60383;46.626;18.866;2022-07-03T12:10:57;7.53;;;3.60;;
58071;SDS011;60383;46.626;18.866;2022-07-03T12:13:24;5.88;;;3.55;;
58071;SDS011;60383;46.626;18.866;2022-07-03T12:15:50;6.22;;;3.75;;
58071;SDS011;60383;46.626;18.866;2022-07-03T12:18:16;5.00;;;3.53;;
58071;SDS011;60383;46.626;18.866;2022-07-03T12:20:41;7.13;;;3.67;;
58071;SDS011;60383;46.626;18.866;2022-07-03T12:23:08;7.38;;;3.75;;
58071;SDS011;60383;46.626;18.866;2022-07-03T12:25:40;5.03;;;3.85;;
58071;SDS011;60383;46.626;18.866;2022-07-03T12:28:06;4.15;;;3.45;;
58071;SDS011;60383;46.626;18.866;2022-07-03T12:30:34;5.10;;;3.30;;
58071;SDS011;60383;46.626;18.866;2022-07-03T12:33:01;8.88;;;3.80;;
58071;SDS011;60383;46.626;18.866;2022-07-03T12:35:27;6.05;;;3.65;;
58071;SDS011;60383;46.626;18.866;2022-07-03T12:37:53;5.85;;;3.50;;
58071;SDS011;60383;46.626;18.866;2022-07-03T12:40:18;4.88;;;3.88;;
58071;SDS011;60383;46.626;18.866;2022-07-03T12:42:45;6.88;;;3.70;;
58071;SDS011;60383;46.626;18.866;2022-07-03T12:45:21;4.30;;;3.85;;
58071;SDS011;60383;46.626;18.866;2022-07-03T12:48:03;3.88;;;3.58;;
58071;SDS011;60383;46.626;18.866;2022-07-03T12:50:46;5.93;;;3.25;;
58071;SDS011;60383;46.626;18.866;2022-07-03T12:53:29;5.68;;;3.53;;
58071;SDS011;60383;46.626;18.866;2022-07-03T12:56:00;6.30;;;3.40;;
58071;SDS011;60383;46.626;18.866;2022-07-03T12:58:29;5.80;;;3.42;;
58071;SDS011;60383;46.626;18.866;2022-07-03T13:01:25;8.75;;;3.63;;
58071;SDS011;60383;46.626;18.866;2022-07-03T13:03:54;10.07;;;4.00;;
58071;SDS011;60383;46.626;18.866;2022-07-03T13:06:20;8.15;;;3.78;;
58071;SDS011;60383;46.626;18.866;2022-07-03T13:11:33;5.55;;;3.58;;
58071;SDS011;60383;46.626;18.866;2022-07-03T13:14:02;4.20;;;3.65;;
58071;SDS011;60383;46.626;18.866;2022-07-03T13:16:43;8.38;;;3.90;;
58071;SDS011;60383;46.626;18.866;2022-07-03T13:19:28;7.60;;;3.83;;
58071;SDS011;60383;46.626;18.866;2022-07-03T13:21:55;6.28;;;3.75;;
58071;SDS011;60383;46.626;18.866;2022-07-03T13:24:22;3.92;;;3.38;;
58071;SDS011;60383;46.626;18.866;2022-07-03T13:26:49;5.90;;;3.60;;
58071;SDS011;60383;46.626;18.866;2022-07-03T13:29:16;6.50;;;3.78;;
58071;SDS011;60383;46.626;18.866;2022-07-03T13:31:42;5.95;;;3.70;;
58071;SDS011;60383;46.626;18.866;2022-07-03T13:34:07;7.10;;;3.78;;
58071;SDS011;60383;46.626;18.866;2022-07-03T13:36:33;7.43;;;3.50;;
58071;SDS011;60383;46.626;18.866;2022-07-03T13:38:59;6.05;;;3.60;;
58071;SDS011;60383;46.626;18.866;2022-07-03T13:41:25;5.95;;;3.70;;
58071;SDS011;60383;46.626;18.866;2022-07-03T13:43:51;4.53;;;3.20;;
58071;SDS011;60383;46.626;18.866;2022-07-03T13:46:18;4.55;;;3.35;;
58071;SDS011;60383;46.626;18.866;2022-07-03T13:51:11;4.32;;;3.80;;
58071;SDS011;60383;46.626;18.866;2022-07-03T13:53:37;7.18;;;4.00;;
58071;SDS011;60383;46.626;18.866;2022-07-03T13:56:03;5.65;;;3.70;;
58071;SDS011;60383;46.626;18.866;2022-07-03T13:58:29;5.55;;;3.47;;
58071;SDS011;60383;46.626;18.866;2022-07-03T14:00:54;6.18;;;3.22;;
58071;SDS011;60383;46.626;18.866;2022-07-03T14:03:20;6.38;;;3.88;;
58071;SDS011;60383;46.626;18.866;2022-07-03T14:05:47;3.78;;;2.95;;
58071;SDS011;60383;46.626;18.866;2022-07-03T14:08:16;4.47;;;3.30;;
58071;SDS011;60383;46.626;18.866;2022-07-03T14:10:45;4.45;;;3.08;;
58071;SDS011;60383;46.626;18.866;2022-07-03T14:13:11;4.82;;;3.10;;
58071;SDS011;60383;46.626;18.866;2022-07-03T14:15:36;7.35;;;3.80;;
58071;SDS011;60383;46.626;18.866;2022-07-03T14:18:02;6.38;;;3.60;;
58071;SDS011;60383;46.626;18.866;2022-07-03T14:20:27;5.45;;;3.20;;
58071;SDS011;60383;46.626;18.866;2022-07-03T14:22:53;5.10;;;3.00;;
58071;SDS011;60383;46.626;18.866;2022-07-03T14:25:19;6.72;;;3.55;;
58071;SDS011;60383;46.626;18.866;2022-07-03T14:27:44;5.40;;;3.20;;
58071;SDS011;60383;46.626;18.866;2022-07-03T14:30:29;5.28;;;3.42;;
58071;SDS011;60383;46.626;18.866;2022-07-03T14:33:13;5.13;;;3.28;;
58071;SDS011;60383;46.626;18.866;2022-07-03T14:35:38;5.68;;;3.58;;
58071;SDS011;60383;46.626;18.866;2022-07-03T14:38:04;4.57;;;3.20;;
58071;SDS011;60383;46.626;18.866;2022-07-03T14:40:29;7.40;;;3.25;;
58071;SDS011;60383;46.626;18.866;2022-07-03T14:42:55;6.90;;;3.42;;
58071;SDS011;60383;46.626;18.866;2022-07-03T14:45:22;5.72;;;3.30;;
58071;SDS011;60383;46.626;18.866;2022-07-03T14:47:48;5.78;;;3.42;;
58071;SDS011;60383;46.626;18.866;2022-07-03T14:50:13;8.25;;;3.50;;
58071;SDS011;60383;46.626;18.866;2022-07-03T14:52:39;6.65;;;3.60;;
58071;SDS011;60383;46.626;18.866;2022-07-03T14:55:04;7.03;;;3.35;;
58071;SDS011;60383;46.626;18.866;2022-07-03T15:00:14;6.93;;;3.70;;
58071;SDS011;60383;46.626;18.866;2022-07-03T15:05:24;6.57;;;3.63;;
58071;SDS011;60383;46.626;18.866;2022-07-03T15:10:34;6.38;;;3.60;;
58071;SDS011;60383;46.626;18.866;2022-07-03T15:13:01;4.80;;;3.30;;
58071;SDS011;60383;46.626;18.866;2022-07-03T15:15:30;5.95;;;3.95;;
58071;SDS011;60383;46.626;18.866;2022-07-03T15:17:57;5.57;;;3.95;;
58071;SDS011;60383;46.626;18.866;2022-07-03T15:20:30;7.10;;;3.70;;
58071;SDS011;60383;46.626;18.866;2022-07-03T15:22:57;4.75;;;4.05;;
58071;SDS011;60383;46.626;18.866;2022-07-03T15:25:25;8.23;;;3.83;;
58071;SDS011;60383;46.626;18.866;2022-07-03T15:27:51;5.55;;;3.70;;
58071;SDS011;60383;46.626;18.866;2022-07-03T15:30:18;7.38;;;3.65;;
58071;SDS011;60383;46.626;18.866;2022-07-03T15:32:45;6.82;;;3.88;;
58071;SDS011;60383;46.626;18.866;2022-07-03T15:35:12;8.20;;;4.13;;
58071;SDS011;60383;46.626;18.866;2022-07-03T15:40:24;6.90;;;4.30;;
58071;SDS011;60383;46.626;18.866;2022-07-03T15:48:38;6.82;;;5.25;;
58071;SDS011;60383;46.626;18.866;2022-07-03T15:54:01;8.80;;;5.55;;
58071;SDS011;60383;46.626;18.866;2022-07-03T15:56:32;6.85;;;5.82;;
58071;SDS011;60383;46.626;18.866;2022-07-03T15:59:04;8.52;;;5.90;;
58071;SDS011;60383;46.626;18.866;2022-07-03T16:01:34;8.35;;;5.55;;
58071;SDS011;60383;46.626;18.866;2022-07-03T16:07:28;11.25;;;5.30;;
58071;SDS011;60383;46.626;18.866;2022-07-03T16:09:55;8.73;;;4.85;;
58071;SDS011;60383;46.626;18.866;2022-07-03T16:12:24;7.23;;;4.70;;
58071;SDS011;60383;46.626;18.866;2022-07-03T16:14:51;14.43;;;10.63;;
58071;SDS011;60383;46.626;18.866;2022-07-03T16:17:17;6.80;;;4.70;;
58071;SDS011;60383;46.626;18.866;2022-07-03T16:19:45;10.32;;;5.20;;